sensor_id;sensor_type;location;lat;lon;timestamp;temperature;humidity
64961;SHT31;51487;52.266;10.542;2023-03-23T00:01:03;13.52;69.31
64961;SHT31;51487;52.266;10.542;2023-03-23T00:03:29;13.56;69.33
64961;SHT31;51487;52.266;10.542;2023-03-23T00:05:57;13.54;69.38
64961;SHT31;51487;52.266;10.542;2023-03-23T00:08:30;13.48;69.51
64961;SHT31;51487;52.266;10.542;2023-03-23T00:10:55;13.48;69.32
64961;SHT31;51487;52.266;10.542;2023-03-23T00:13:25;13.46;69.60
64961;SHT31;51487;52.266;10.542;2023-03-23T00:15:51;13.38;69.79
64961;SHT31;51487;52.266;10.542;2023-03-23T00:18:22;13.46;69.55
64961;SHT31;51487;52.266;10.542;2023-03-23T00:20:53;13.48;69.65
64961;SHT31;51487;52.266;10.542;2023-03-23T00:23:19;13.45;69.62
64961;SHT31;51487;52.266;10.542;2023-03-23T00:25:51;13.48;69.60
64961;SHT31;51487;52.266;10.542;2023-03-23T00:28:25;13.55;69.52
64961;SHT31;51487;52.266;10.542;2023-03-23T00:30:59;13.65;69.23
64961;SHT31;51487;52.266;10.542;2023-03-23T00:33:27;13.62;69.46
64961;SHT31;51487;52.266;10.542;2023-03-23T00:35:53;13.58;69.70
64961;SHT31;51487;52.266;10.542;2023-03-23T00:38:23;13.58;69.79
64961;SHT31;51487;52.266;10.542;2023-03-23T00:40:49;13.55;70.08
64961;SHT31;51487;52.266;10.542;2023-03-23T00:43:17;13.54;70.12
64961;SHT31;51487;52.266;10.542;2023-03-23T00:45:43;13.52;69.97
64961;SHT31;51487;52.266;10.542;2023-03-23T00:48:10;13.56;69.91
64961;SHT31;51487;52.266;10.542;2023-03-23T00:50:38;13.49;71.29
64961;SHT31;51487;52.266;10.542;2023-03-23T00:53:03;13.46;73.22
64961;SHT31;51487;52.266;10.542;2023-03-23T00:55:29;13.39;74.06
64961;SHT31;51487;52.266;10.542;2023-03-23T00:57:55;13.34;74.03
64961;SHT31;51487;52.266;10.542;2023-03-23T01:00:21;13.27;74.79
64961;SHT31;51487;52.266;10.542;2023-03-23T01:02:47;13.22;75.19
64961;SHT31;51487;52.266;10.542;2023-03-23T01:05:13;13.17;75.09
64961;SHT31;51487;52.266;10.542;2023-03-23T01:07:41;13.17;75.41
64961;SHT31;51487;52.266;10.542;2023-03-23T01:10:10;13.12;75.01
64961;SHT31;51487;52.266;10.542;2023-03-23T01:12:38;13.14;75.48
64961;SHT31;51487;52.266;10.542;2023-03-23T01:15:05;13.10;75.36
64961;SHT31;51487;52.266;10.542;2023-03-23T01:17:31;13.01;75.34
64961;SHT31;51487;52.266;10.542;2023-03-23T01:19:56;12.97;75.99
64961;SHT31;51487;52.266;10.542;2023-03-23T01:22:22;13.04;75.90
64961;SHT31;51487;52.266;10.542;2023-03-23T01:24:47;12.96;76.66
64961;SHT31;51487;52.266;10.542;2023-03-23T01:27:12;12.91;77.45
64961;SHT31;51487;52.266;10.542;2023-03-23T01:29:38;12.94;76.22
64961;SHT31;51487;52.266;10.542;2023-03-23T01:32:03;13.01;76.70
64961;SHT31;51487;52.266;10.542;2023-03-23T01:34:28;12.90;77.35
64961;SHT31;51487;52.266;10.542;2023-03-23T01:36:54;12.93;77.02
64961;SHT31;51487;52.266;10.542;2023-03-23T01:39:20;12.88;77.04
64961;SHT31;51487;52.266;10.542;2023-03-23T01:41:45;12.93;76.82
64961;SHT31;51487;52.266;10.542;2023-03-23T01:46:43;12.96;77.13
64961;SHT31;51487;52.266;10.542;2023-03-23T01:49:22;13.01;77.11
64961;SHT31;51487;52.266;10.542;2023-03-23T01:51:54;12.91;77.41
64961;SHT31;51487;52.266;10.542;2023-03-23T01:54:22;12.86;78.13
64961;SHT31;51487;52.266;10.542;2023-03-23T01:56:54;12.93;78.92
64961;SHT31;51487;52.266;10.542;2023-03-23T01:59:21;12.84;79.96
64961;SHT31;51487;52.266;10.542;2023-03-23T02:01:48;12.73;81.03
64961;SHT31;51487;52.266;10.542;2023-03-23T02:04:14;12.69;80.46
64961;SHT31;51487;52.266;10.542;2023-03-23T02:06:41;12.60;81.02
64961;SHT31;51487;52.266;10.542;2023-03-23T02:09:07;12.59;81.10
64961;SHT31;51487;52.266;10.542;2023-03-23T02:11:33;12.61;80.89
64961;SHT31;51487;52.266;10.542;2023-03-23T02:13:59;12.49;81.48
64961;SHT31;51487;52.266;10.542;2023-03-23T02:17:07;12.52;81.33
64961;SHT31;51487;52.266;10.542;2023-03-23T02:25:48;12.46;80.67
64961;SHT31;51487;52.266;10.542;2023-03-23T02:41:59;12.46;80.50
64961;SHT31;51487;52.266;10.542;2023-03-23T02:44:29;12.53;79.85
64961;SHT31;51487;52.266;10.542;2023-03-23T02:46:56;12.59;79.63
64961;SHT31;51487;52.266;10.542;2023-03-23T02:49:23;12.72;79.53
64961;SHT31;51487;52.266;10.542;2023-03-23T02:51:50;12.60;79.93
64961;SHT31;51487;52.266;10.542;2023-03-23T02:54:17;12.60;79.75
64961;SHT31;51487;52.266;10.542;2023-03-23T02:56:44;12.53;80.14
64961;SHT31;51487;52.266;10.542;2023-03-23T02:59:10;12.53;80.24
64961;SHT31;51487;52.266;10.542;2023-03-23T03:04:06;12.50;80.48
64961;SHT31;51487;52.266;10.542;2023-03-23T03:12:36;12.53;80.99
64961;SHT31;51487;52.266;10.542;2023-03-23T03:15:36;12.46;81.21
64961;SHT31;51487;52.266;10.542;2023-03-23T03:18:22;12.39;81.33
64961;SHT31;51487;52.266;10.542;2023-03-23T03:20:51;12.48;81.50
64961;SHT31;51487;52.266;10.542;2023-03-23T03:23:20;12.43;81.80
64961;SHT31;51487;52.266;10.542;2023-03-23T03:25:47;12.30;82.75
64961;SHT31;51487;52.266;10.542;2023-03-23T03:28:17;12.25;83.58
64961;SHT31;51487;52.266;10.542;2023-03-23T03:30:54;12.25;83.50
64961;SHT31;51487;52.266;10.542;2023-03-23T03:33:22;12.22;83.62
64961;SHT31;51487;52.266;10.542;2023-03-23T03:35:51;12.18;83.97
64961;SHT31;51487;52.266;10.542;2023-03-23T03:38:17;12.18;84.15
64961;SHT31;51487;52.266;10.542;2023-03-23T03:40:42;12.18;84.43
64961;SHT31;51487;52.266;10.542;2023-03-23T03:43:08;12.15;84.82
64961;SHT31;51487;52.266;10.542;2023-03-23T03:45:33;12.08;85.18
64961;SHT31;51487;52.266;10.542;2023-03-23T03:47:59;12.02;85.57
64961;SHT31;51487;52.266;10.542;2023-03-23T03:50:25;11.97;86.12
64961;SHT31;51487;52.266;10.542;2023-03-23T03:52:51;11.95;86.16
64961;SHT31;51487;52.266;10.542;2023-03-23T03:55:17;11.91;86.55
64961;SHT31;51487;52.266;10.542;2023-03-23T03:57:43;11.92;86.38
64961;SHT31;51487;52.266;10.542;2023-03-23T04:00:09;11.87;87.01
64961;SHT31;51487;52.266;10.542;2023-03-23T04:02:44;11.84;87.08
64961;SHT31;51487;52.266;10.542;2023-03-23T04:05:13;11.91;86.48
64961;SHT31;51487;52.266;10.542;2023-03-23T04:07:38;11.84;86.99
64961;SHT31;51487;52.266;10.542;2023-03-23T04:10:09;11.85;87.16
64961;SHT31;51487;52.266;10.542;2023-03-23T04:12:35;11.80;87.18
64961;SHT31;51487;52.266;10.542;2023-03-23T04:15:00;11.80;87.34
64961;SHT31;51487;52.266;10.542;2023-03-23T04:17:26;11.80;87.47
64961;SHT31;51487;52.266;10.542;2023-03-23T04:19:52;11.80;87.93
64961;SHT31;51487;52.266;10.542;2023-03-23T04:22:22;11.88;87.22
64961;SHT31;51487;52.266;10.542;2023-03-23T04:24:59;11.78;88.15
64961;SHT31;51487;52.266;10.542;2023-03-23T04:27:26;11.78;88.01
64961;SHT31;51487;52.266;10.542;2023-03-23T04:29:56;11.81;88.04
64961;SHT31;51487;52.266;10.542;2023-03-23T04:32:24;11.80;88.22
64961;SHT31;51487;52.266;10.542;2023-03-23T04:34:56;11.80;87.85
64961;SHT31;51487;52.266;10.542;2023-03-23T04:37:26;11.82;88.17
64961;SHT31;51487;52.266;10.542;2023-03-23T04:39:55;11.77;88.39
64961;SHT31;51487;52.266;10.542;2023-03-23T04:42:29;11.67;88.47
64961;SHT31;51487;52.266;10.542;2023-03-23T04:44:56;11.67;89.06
64961;SHT31;51487;52.266;10.542;2023-03-23T04:47:22;11.66;88.90
64961;SHT31;51487;52.266;10.542;2023-03-23T04:49:48;11.69;88.69
64961;SHT31;51487;52.266;10.542;2023-03-23T04:52:13;11.66;88.71
64961;SHT31;51487;52.266;10.542;2023-03-23T04:54:39;11.69;88.77
64961;SHT31;51487;52.266;10.542;2023-03-23T04:57:05;11.67;88.51
64961;SHT31;51487;52.266;10.542;2023-03-23T04:59:30;11.69;88.19
64961;SHT31;51487;52.266;10.542;2023-03-23T05:01:56;11.61;88.48
64961;SHT31;51487;52.266;10.542;2023-03-23T05:04:22;11.57;88.58
64961;SHT31;51487;52.266;10.542;2023-03-23T05:06:48;11.59;88.26
64961;SHT31;51487;52.266;10.542;2023-03-23T05:09:13;11.60;88.25
64961;SHT31;51487;52.266;10.542;2023-03-23T05:11:39;11.56;87.92
64961;SHT31;51487;52.266;10.542;2023-03-23T05:14:04;11.56;88.27
64961;SHT31;51487;52.266;10.542;2023-03-23T05:16:30;11.54;88.41
64961;SHT31;51487;52.266;10.542;2023-03-23T05:18:56;11.49;88.62
64961;SHT31;51487;52.266;10.542;2023-03-23T05:21:24;11.44;88.68
64961;SHT31;51487;52.266;10.542;2023-03-23T05:23:49;11.41;88.73
64961;SHT31;51487;52.266;10.542;2023-03-23T05:26:20;11.44;88.65
64961;SHT31;51487;52.266;10.542;2023-03-23T05:28:46;11.51;88.24
64961;SHT31;51487;52.266;10.542;2023-03-23T05:31:11;11.49;88.25
64961;SHT31;51487;52.266;10.542;2023-03-23T05:33:38;11.43;88.73
64961;SHT31;51487;52.266;10.542;2023-03-23T05:36:04;11.47;88.64
64961;SHT31;51487;52.266;10.542;2023-03-23T05:38:32;11.51;88.00
64961;SHT31;51487;52.266;10.542;2023-03-23T05:41:00;11.49;88.19
64961;SHT31;51487;52.266;10.542;2023-03-23T05:43:26;11.53;87.95
64961;SHT31;51487;52.266;10.542;2023-03-23T05:45:52;11.54;87.87
64961;SHT31;51487;52.266;10.542;2023-03-23T05:48:17;11.53;87.96
64961;SHT31;51487;52.266;10.542;2023-03-23T05:50:43;11.56;87.81
64961;SHT31;51487;52.266;10.542;2023-03-23T05:53:08;11.59;87.84
64961;SHT31;51487;52.266;10.542;2023-03-23T05:55:33;11.57;87.72
64961;SHT31;51487;52.266;10.542;2023-03-23T05:57:59;11.56;87.71
64961;SHT31;51487;52.266;10.542;2023-03-23T06:00:25;11.61;87.50
64961;SHT31;51487;52.266;10.542;2023-03-23T06:02:55;11.57;86.96
64961;SHT31;51487;52.266;10.542;2023-03-23T06:05:21;11.64;86.91
64961;SHT31;51487;52.266;10.542;2023-03-23T06:07:47;11.73;86.59
64961;SHT31;51487;52.266;10.542;2023-03-23T06:10:13;11.80;86.19
64961;SHT31;51487;52.266;10.542;2023-03-23T06:12:40;11.84;85.87
64961;SHT31;51487;52.266;10.542;2023-03-23T06:15:07;11.88;85.33
64961;SHT31;51487;52.266;10.542;2023-03-23T06:17:33;12.01;84.54
64961;SHT31;51487;52.266;10.542;2023-03-23T06:19:59;12.02;84.73
64961;SHT31;51487;52.266;10.542;2023-03-23T06:22:24;12.08;84.45
64961;SHT31;51487;52.266;10.542;2023-03-23T06:24:50;12.08;84.52
64961;SHT31;51487;52.266;10.542;2023-03-23T06:27:16;12.08;84.31
64961;SHT31;51487;52.266;10.542;2023-03-23T06:29:42;12.12;84.90
64961;SHT31;51487;52.266;10.542;2023-03-23T06:32:10;12.19;84.37
64961;SHT31;51487;52.266;10.542;2023-03-23T06:34:37;12.08;84.79
64961;SHT31;51487;52.266;10.542;2023-03-23T06:37:02;12.12;85.28
64961;SHT31;51487;52.266;10.542;2023-03-23T06:39:28;12.18;85.03
64961;SHT31;51487;52.266;10.542;2023-03-23T06:41:53;12.18;85.27
64961;SHT31;51487;52.266;10.542;2023-03-23T06:44:18;12.22;85.27
64961;SHT31;51487;52.266;10.542;2023-03-23T06:46:44;12.29;85.09
64961;SHT31;51487;52.266;10.542;2023-03-23T06:49:09;12.26;85.02
64961;SHT31;51487;52.266;10.542;2023-03-23T06:51:35;12.33;85.08
64961;SHT31;51487;52.266;10.542;2023-03-23T06:54:01;12.35;84.71
64961;SHT31;51487;52.266;10.542;2023-03-23T06:56:27;12.28;84.96
64961;SHT31;51487;52.266;10.542;2023-03-23T06:58:52;12.21;85.08
64961;SHT31;51487;52.266;10.542;2023-03-23T07:01:18;12.19;84.88
64961;SHT31;51487;52.266;10.542;2023-03-23T07:03:43;12.22;85.06
64961;SHT31;51487;52.266;10.542;2023-03-23T07:06:09;12.30;84.78
64961;SHT31;51487;52.266;10.542;2023-03-23T07:08:35;12.39;84.38
64961;SHT31;51487;52.266;10.542;2023-03-23T07:11:01;12.42;84.46
64961;SHT31;51487;52.266;10.542;2023-03-23T07:13:26;12.55;84.01
64961;SHT31;51487;52.266;10.542;2023-03-23T07:15:52;12.55;84.09
64961;SHT31;51487;52.266;10.542;2023-03-23T07:18:18;12.69;83.48
64961;SHT31;51487;52.266;10.542;2023-03-23T07:20:47;12.86;83.02
64961;SHT31;51487;52.266;10.542;2023-03-23T07:23:12;12.94;82.71
64961;SHT31;51487;52.266;10.542;2023-03-23T07:25:37;13.04;81.90
64961;SHT31;51487;52.266;10.542;2023-03-23T07:28:03;12.98;82.42
64961;SHT31;51487;52.266;10.542;2023-03-23T07:30:29;13.06;81.90
64961;SHT31;51487;52.266;10.542;2023-03-23T07:32:56;13.10;81.77
64961;SHT31;51487;52.266;10.542;2023-03-23T07:35:21;13.19;81.42
64961;SHT31;51487;52.266;10.542;2023-03-23T07:37:47;13.01;81.58
64961;SHT31;51487;52.266;10.542;2023-03-23T07:40:14;12.90;81.79
64961;SHT31;51487;52.266;10.542;2023-03-23T07:42:41;12.81;81.97
64961;SHT31;51487;52.266;10.542;2023-03-23T07:45:08;13.01;81.61
64961;SHT31;51487;52.266;10.542;2023-03-23T07:47:34;12.88;82.10
64961;SHT31;51487;52.266;10.542;2023-03-23T07:49:59;12.93;81.81
64961;SHT31;51487;52.266;10.542;2023-03-23T07:52:25;12.90;81.60
64961;SHT31;51487;52.266;10.542;2023-03-23T07:54:50;13.10;81.23
64961;SHT31;51487;52.266;10.542;2023-03-23T07:57:16;13.10;81.64
64961;SHT31;51487;52.266;10.542;2023-03-23T07:59:41;13.15;81.60
64961;SHT31;51487;52.266;10.542;2023-03-23T08:02:08;13.22;81.43
64961;SHT31;51487;52.266;10.542;2023-03-23T08:04:34;13.31;81.10
64961;SHT31;51487;52.266;10.542;2023-03-23T08:07:03;13.42;80.97
64961;SHT31;51487;52.266;10.542;2023-03-23T08:09:29;13.35;80.41
64961;SHT31;51487;52.266;10.542;2023-03-23T08:11:55;13.58;79.94
64961;SHT31;51487;52.266;10.542;2023-03-23T08:14:21;13.65;79.45
64961;SHT31;51487;52.266;10.542;2023-03-23T08:16:46;13.67;79.34
64961;SHT31;51487;52.266;10.542;2023-03-23T08:19:13;13.91;78.80
64961;SHT31;51487;52.266;10.542;2023-03-23T08:21:38;14.07;78.25
64961;SHT31;51487;52.266;10.542;2023-03-23T08:24:04;14.18;77.49
64961;SHT31;51487;52.266;10.542;2023-03-23T08:26:30;14.12;77.80
64961;SHT31;51487;52.266;10.542;2023-03-23T08:28:56;14.18;77.85
64961;SHT31;51487;52.266;10.542;2023-03-23T08:31:22;14.31;77.24
64961;SHT31;51487;52.266;10.542;2023-03-23T08:33:49;14.41;77.14
64961;SHT31;51487;52.266;10.542;2023-03-23T08:36:14;14.35;77.22
64961;SHT31;51487;52.266;10.542;2023-03-23T08:38:40;14.42;76.30
64961;SHT31;51487;52.266;10.542;2023-03-23T08:41:06;14.51;76.89
64961;SHT31;51487;52.266;10.542;2023-03-23T08:43:33;14.47;77.05
64961;SHT31;51487;52.266;10.542;2023-03-23T08:45:59;14.63;76.46
64961;SHT31;51487;52.266;10.542;2023-03-23T08:48:25;14.57;76.74
64961;SHT31;51487;52.266;10.542;2023-03-23T08:50:51;14.58;76.62
64961;SHT31;51487;52.266;10.542;2023-03-23T08:53:18;14.64;75.90
64961;SHT31;51487;52.266;10.542;2023-03-23T08:55:43;14.47;76.70
64961;SHT31;51487;52.266;10.542;2023-03-23T08:58:09;14.52;76.53
64961;SHT31;51487;52.266;10.542;2023-03-23T09:00:35;14.74;75.94
64961;SHT31;51487;52.266;10.542;2023-03-23T09:03:01;14.84;75.18
64961;SHT31;51487;52.266;10.542;2023-03-23T09:05:28;14.84;75.78
64961;SHT31;51487;52.266;10.542;2023-03-23T09:07:56;14.76;75.86
64961;SHT31;51487;52.266;10.542;2023-03-23T09:10:27;14.84;75.11
64961;SHT31;51487;52.266;10.542;2023-03-23T09:12:54;14.85;74.62
64961;SHT31;51487;52.266;10.542;2023-03-23T09:15:20;15.05;74.51
64961;SHT31;51487;52.266;10.542;2023-03-23T09:17:50;14.91;74.85
64961;SHT31;51487;52.266;10.542;2023-03-23T09:20:19;15.20;74.91
64961;SHT31;51487;52.266;10.542;2023-03-23T09:22:48;15.22;73.85
64961;SHT31;51487;52.266;10.542;2023-03-23T09:25:17;15.29;73.57
64961;SHT31;51487;52.266;10.542;2023-03-23T09:27:44;15.26;73.78
64961;SHT31;51487;52.266;10.542;2023-03-23T09:30:13;15.16;73.50
64961;SHT31;51487;52.266;10.542;2023-03-23T09:32:39;15.23;73.31
64961;SHT31;51487;52.266;10.542;2023-03-23T09:35:07;15.20;73.70
64961;SHT31;51487;52.266;10.542;2023-03-23T09:37:39;15.09;73.86
64961;SHT31;51487;52.266;10.542;2023-03-23T09:40:07;15.19;73.57
64961;SHT31;51487;52.266;10.542;2023-03-23T09:42:44;15.23;73.51
64961;SHT31;51487;52.266;10.542;2023-03-23T09:45:25;15.36;73.39
64961;SHT31;51487;52.266;10.542;2023-03-23T09:50:31;15.19;73.48
64961;SHT31;51487;52.266;10.542;2023-03-23T09:53:02;15.32;72.88
64961;SHT31;51487;52.266;10.542;2023-03-23T09:55:28;15.39;73.11
64961;SHT31;51487;52.266;10.542;2023-03-23T09:58:20;15.42;72.88
64961;SHT31;51487;52.266;10.542;2023-03-23T10:01:02;15.49;72.78
64961;SHT31;51487;52.266;10.542;2023-03-23T10:03:37;15.51;72.79
64961;SHT31;51487;52.266;10.542;2023-03-23T10:06:05;15.42;73.00
64961;SHT31;51487;52.266;10.542;2023-03-23T10:08:33;15.58;72.29
64961;SHT31;51487;52.266;10.542;2023-03-23T10:11:19;15.50;72.81
64961;SHT31;51487;52.266;10.542;2023-03-23T10:16:29;15.49;72.94
64961;SHT31;51487;52.266;10.542;2023-03-23T10:19:12;15.42;72.65
64961;SHT31;51487;52.266;10.542;2023-03-23T10:21:49;15.36;71.63
64961;SHT31;51487;52.266;10.542;2023-03-23T10:24:20;15.32;72.17
64961;SHT31;51487;52.266;10.542;2023-03-23T10:27:13;15.29;72.79
64961;SHT31;51487;52.266;10.542;2023-03-23T10:29:46;15.33;71.74
64961;SHT31;51487;52.266;10.542;2023-03-23T10:32:16;15.57;71.39
64961;SHT31;51487;52.266;10.542;2023-03-23T10:35:04;15.58;71.32
64961;SHT31;51487;52.266;10.542;2023-03-23T10:37:36;15.53;71.14
64961;SHT31;51487;52.266;10.542;2023-03-23T10:40:04;15.67;70.70
64961;SHT31;51487;52.266;10.542;2023-03-23T10:42:36;15.82;71.05
64961;SHT31;51487;52.266;10.542;2023-03-23T10:45:17;15.80;70.75
64961;SHT31;51487;52.266;10.542;2023-03-23T10:48:13;15.77;69.93
64961;SHT31;51487;52.266;10.542;2023-03-23T10:50:41;15.78;69.96
64961;SHT31;51487;52.266;10.542;2023-03-23T10:53:18;15.71;70.37
64961;SHT31;51487;52.266;10.542;2023-03-23T10:55:44;15.72;69.98
64961;SHT31;51487;52.266;10.542;2023-03-23T10:58:21;15.54;70.42
64961;SHT31;51487;52.266;10.542;2023-03-23T11:00:47;15.49;70.70
64961;SHT31;51487;52.266;10.542;2023-03-23T11:05:49;15.67;69.84
64961;SHT31;51487;52.266;10.542;2023-03-23T11:08:34;15.78;69.63
64961;SHT31;51487;52.266;10.542;2023-03-23T11:11:16;15.80;69.67
64961;SHT31;51487;52.266;10.542;2023-03-23T11:13:43;15.71;69.39
64961;SHT31;51487;52.266;10.542;2023-03-23T11:16:10;15.84;68.54
64961;SHT31;51487;52.266;10.542;2023-03-23T11:18:41;15.80;69.49
64961;SHT31;51487;52.266;10.542;2023-03-23T11:21:09;15.82;69.07
64961;SHT31;51487;52.266;10.542;2023-03-23T11:23:41;15.92;69.12
64961;SHT31;51487;52.266;10.542;2023-03-23T11:28:48;16.08;68.53
64961;SHT31;51487;52.266;10.542;2023-03-23T11:31:17;16.08;68.57
64961;SHT31;51487;52.266;10.542;2023-03-23T11:33:47;16.06;68.31
64961;SHT31;51487;52.266;10.542;2023-03-23T11:36:15;15.92;68.17
64961;SHT31;51487;52.266;10.542;2023-03-23T11:38:42;15.91;67.92
64961;SHT31;51487;52.266;10.542;2023-03-23T11:41:12;15.95;67.93
64961;SHT31;51487;52.266;10.542;2023-03-23T11:43:40;15.85;67.55
64961;SHT31;51487;52.266;10.542;2023-03-23T11:46:28;15.70;67.44
64961;SHT31;51487;52.266;10.542;2023-03-23T11:49:05;15.78;67.85
64961;SHT31;51487;52.266;10.542;2023-03-23T11:51:41;15.91;68.51
64961;SHT31;51487;52.266;10.542;2023-03-23T11:54:30;16.22;67.15
64961;SHT31;51487;52.266;10.542;2023-03-23T11:56:57;16.43;66.22
64961;SHT31;51487;52.266;10.542;2023-03-23T11:59:28;16.80;65.10
64961;SHT31;51487;52.266;10.542;2023-03-23T12:08:02;17.58;62.19
64961;SHT31;51487;52.266;10.542;2023-03-23T12:16:14;17.58;60.65
64961;SHT31;51487;52.266;10.542;2023-03-23T12:21:50;17.24;61.47
64961;SHT31;51487;52.266;10.542;2023-03-23T12:30:43;17.12;61.38
64961;SHT31;51487;52.266;10.542;2023-03-23T12:35:59;17.42;60.15
64961;SHT31;51487;52.266;10.542;2023-03-23T12:44:13;17.50;59.62
64961;SHT31;51487;52.266;10.542;2023-03-23T12:46:49;17.39;59.05
64961;SHT31;51487;52.266;10.542;2023-03-23T12:49:24;17.11;59.36
64961;SHT31;51487;52.266;10.542;2023-03-23T12:54:40;16.80;59.35
64961;SHT31;51487;52.266;10.542;2023-03-23T13:00:31;16.57;60.78
64961;SHT31;51487;52.266;10.542;2023-03-23T13:03:23;16.46;60.99
64961;SHT31;51487;52.266;10.542;2023-03-23T13:06:42;16.36;61.59
64961;SHT31;51487;52.266;10.542;2023-03-23T13:08:58;16.28;62.12
64961;SHT31;51487;52.266;10.542;2023-03-23T13:11:37;16.18;62.20
64961;SHT31;51487;52.266;10.542;2023-03-23T13:19:26;15.98;63.43
64961;SHT31;51487;52.266;10.542;2023-03-23T13:22:02;16.00;63.16
64961;SHT31;51487;52.266;10.542;2023-03-23T13:24:31;16.06;64.74
64961;SHT31;51487;52.266;10.542;2023-03-23T13:26:59;16.18;63.43
64961;SHT31;51487;52.266;10.542;2023-03-23T13:29:26;15.95;64.35
64961;SHT31;51487;52.266;10.542;2023-03-23T13:32:21;15.92;65.57
64961;SHT31;51487;52.266;10.542;2023-03-23T13:34:48;15.61;66.47
64961;SHT31;51487;52.266;10.542;2023-03-23T13:37:26;15.33;67.63
64961;SHT31;51487;52.266;10.542;2023-03-23T13:39:53;15.36;67.82
64961;SHT31;51487;52.266;10.542;2023-03-23T13:42:29;15.50;68.32
64961;SHT31;51487;52.266;10.542;2023-03-23T13:45:23;15.39;68.67
64961;SHT31;51487;52.266;10.542;2023-03-23T13:47:49;15.43;70.65
64961;SHT31;51487;52.266;10.542;2023-03-23T13:50:28;15.19;71.72
64961;SHT31;51487;52.266;10.542;2023-03-23T13:52:59;14.54;72.87
64961;SHT31;51487;52.266;10.542;2023-03-23T14:05:34;14.64;73.90
64961;SHT31;51487;52.266;10.542;2023-03-23T14:08:10;14.71;73.76
64961;SHT31;51487;52.266;10.542;2023-03-23T14:10:39;14.81;72.01
64961;SHT31;51487;52.266;10.542;2023-03-23T14:13:31;14.99;71.11
64961;SHT31;51487;52.266;10.542;2023-03-23T14:16:03;14.98;70.02
64961;SHT31;51487;52.266;10.542;2023-03-23T14:18:38;15.36;67.73
64961;SHT31;51487;52.266;10.542;2023-03-23T14:21:05;15.05;66.56
64961;SHT31;51487;52.266;10.542;2023-03-23T14:23:34;14.98;66.11
64961;SHT31;51487;52.266;10.542;2023-03-23T14:26:03;15.02;66.50
64961;SHT31;51487;52.266;10.542;2023-03-23T14:28:38;14.58;67.46
64961;SHT31;51487;52.266;10.542;2023-03-23T14:31:04;14.58;67.72
64961;SHT31;51487;52.266;10.542;2023-03-23T14:33:30;14.81;67.55
64961;SHT31;51487;52.266;10.542;2023-03-23T14:35:58;14.72;67.82
64961;SHT31;51487;52.266;10.542;2023-03-23T14:38:25;14.63;68.34
64961;SHT31;51487;52.266;10.542;2023-03-23T14:41:03;14.40;69.18
64961;SHT31;51487;52.266;10.542;2023-03-23T14:43:29;14.37;70.91
64961;SHT31;51487;52.266;10.542;2023-03-23T14:45:58;14.27;71.27
64961;SHT31;51487;52.266;10.542;2023-03-23T14:48:25;13.97;72.17
64961;SHT31;51487;52.266;10.542;2023-03-23T14:50:56;13.96;72.58
64961;SHT31;51487;52.266;10.542;2023-03-23T14:53:24;13.79;74.18
64961;SHT31;51487;52.266;10.542;2023-03-23T14:55:52;13.63;75.88
64961;SHT31;51487;52.266;10.542;2023-03-23T14:58:20;13.65;76.74
64961;SHT31;51487;52.266;10.542;2023-03-23T15:01:08;13.49;77.25
64961;SHT31;51487;52.266;10.542;2023-03-23T15:03:39;13.38;78.80
64961;SHT31;51487;52.266;10.542;2023-03-23T15:06:12;13.38;79.34
64961;SHT31;51487;52.266;10.542;2023-03-23T15:08:39;13.31;80.09
64961;SHT31;51487;52.266;10.542;2023-03-23T15:11:10;13.04;81.10
64961;SHT31;51487;52.266;10.542;2023-03-23T15:13:36;13.01;81.36
64961;SHT31;51487;52.266;10.542;2023-03-23T15:16:17;12.93;82.28
64961;SHT31;51487;52.266;10.542;2023-03-23T15:18:53;12.84;82.33
64961;SHT31;51487;52.266;10.542;2023-03-23T15:21:28;12.76;82.07
64961;SHT31;51487;52.266;10.542;2023-03-23T15:23:54;12.70;83.01
64961;SHT31;51487;52.266;10.542;2023-03-23T15:26:42;12.96;82.43
64961;SHT31;51487;52.266;10.542;2023-03-23T15:31:45;13.00;81.99
64961;SHT31;51487;52.266;10.542;2023-03-23T15:34:45;13.12;81.97
64961;SHT31;51487;52.266;10.542;2023-03-23T15:37:30;13.01;82.07
64961;SHT31;51487;52.266;10.542;2023-03-23T15:39:58;12.98;82.74
64961;SHT31;51487;52.266;10.542;2023-03-23T15:45:26;13.12;82.34
64961;SHT31;51487;52.266;10.542;2023-03-23T15:47:53;13.22;82.33
64961;SHT31;51487;52.266;10.542;2023-03-23T15:52:53;13.25;82.42
64961;SHT31;51487;52.266;10.542;2023-03-23T15:55:28;13.34;82.06
64961;SHT31;51487;52.266;10.542;2023-03-23T15:57:56;13.19;82.92
64961;SHT31;51487;52.266;10.542;2023-03-23T16:00:23;13.10;82.01
64961;SHT31;51487;52.266;10.542;2023-03-23T16:02:53;13.01;82.91
64961;SHT31;51487;52.266;10.542;2023-03-23T16:05:20;13.00;83.55
64961;SHT31;51487;52.266;10.542;2023-03-23T16:07:45;13.03;82.52
64961;SHT31;51487;52.266;10.542;2023-03-23T16:10:16;12.97;82.85
64961;SHT31;51487;52.266;10.542;2023-03-23T16:12:42;13.07;82.71
64961;SHT31;51487;52.266;10.542;2023-03-23T16:15:08;13.10;83.09
64961;SHT31;51487;52.266;10.542;2023-03-23T16:17:33;13.08;82.46
64961;SHT31;51487;52.266;10.542;2023-03-23T16:19:59;13.14;82.78
64961;SHT31;51487;52.266;10.542;2023-03-23T16:22:24;13.25;82.73
64961;SHT31;51487;52.266;10.542;2023-03-23T16:24:50;13.25;82.13
64961;SHT31;51487;52.266;10.542;2023-03-23T16:27:15;13.31;81.95
64961;SHT31;51487;52.266;10.542;2023-03-23T16:29:41;13.28;82.02
64961;SHT31;51487;52.266;10.542;2023-03-23T16:32:06;13.24;82.45
64961;SHT31;51487;52.266;10.542;2023-03-23T16:34:32;13.08;83.18
64961;SHT31;51487;52.266;10.542;2023-03-23T16:37:00;13.01;83.72
64961;SHT31;51487;52.266;10.542;2023-03-23T16:39:26;13.00;83.66
64961;SHT31;51487;52.266;10.542;2023-03-23T16:41:52;12.94;84.02
64961;SHT31;51487;52.266;10.542;2023-03-23T16:44:17;12.98;84.23
64961;SHT31;51487;52.266;10.542;2023-03-23T16:46:42;13.07;83.59
64961;SHT31;51487;52.266;10.542;2023-03-23T16:49:08;13.06;84.02
64961;SHT31;51487;52.266;10.542;2023-03-23T16:51:33;13.19;83.68
64961;SHT31;51487;52.266;10.542;2023-03-23T16:53:59;13.15;83.50
64961;SHT31;51487;52.266;10.542;2023-03-23T16:56:24;13.11;83.66
64961;SHT31;51487;52.266;10.542;2023-03-23T16:58:49;13.04;83.82
64961;SHT31;51487;52.266;10.542;2023-03-23T17:01:15;12.97;84.12
64961;SHT31;51487;52.266;10.542;2023-03-23T17:03:40;12.83;84.14
64961;SHT31;51487;52.266;10.542;2023-03-23T17:06:07;12.81;84.28
64961;SHT31;51487;52.266;10.542;2023-03-23T17:08:33;12.75;84.21